Lake Worth, FL (33460)

9:54 PM EDT on October 21, 2014 (GMT -0400)
NOS_NWLON Lake Worth Pier, FL NWLON | Change Station
CLOSE
Current Station
Personal Weather Station
Location: Lake Worth, FL
Elevation: 0 ft
Nearby Weather Stations

Elev 0 ft 26.61 °N, 80.03 °W | Updated 30 minutes ago

Mostly Cloudy
Mostly Cloudy
°F
Feels Like °F
N
5.0
Wind Variable Wind from SW
Gusts 6.0 mph

Today
High -- | Low -- °F
--% Chance of Precip.
Yesterday
High -- | Low -- °F
Precip. -- in
7:22 AM 6:46 PM
Waning Crescent, 3% visible
Pressure 29.94 in
Visibility 10.0 miles
Clouds Few 6000 ft
Scattered Clouds 12000 ft
Mostly Cloudy 25000 ft
Dew Point Not available.
Humidity Not available.
Rainfall -999.00 in
Snow Depth Not available.
UV 0 out of 12
Pollen 3.20 out of 12
Ozone Good
PM2.5 Good
Flu Activity Local Activity
METAR KPBI 220053Z 22005KT 10SM FEW060 SCT120 BKN250 22/22 A2994 RMK AO2 SLP136 T02170217

More Conditions Fewer Conditions

Pressure 29.94 in
Visibility 10.0 miles
Clouds Few 6000 ft
Scattered Clouds 12000 ft
Mostly Cloudy 25000 ft
Dew Point Not available.
Humidity Not available.
Rainfall -999.00 in
Snow Depth Not available.
UV 0 out of 12
Pollen 3.20 out of 12
Ozone Good
PM2.5 Good
Flu Activity Local Activity
METAR KPBI 220053Z 22005KT 10SM FEW060 SCT120 BKN250 22/22 A2994 RMK AO2 SLP136 T02170217

More Conditions Fewer Conditions

10-Day Weather Forecast

Almanac

Astronomy

Oct. 21, 2014 Rise Set
Actual Time 7:22 AM EDT 6:46 PM EDT
Civil Twilight 6:59 AM EDT 7:09 PM EDT
Nautical Twilight 6:32 AM EDT 7:36 PM EDT
Astronomical Twilight 6:05 AM EDT 8:03 PM EDT
Moon 5:17 AM EDT (10/21) 5:29 PM EDT (10/21)
Length of Visible Light 12h 10m
Length of Day
11h 23m
Tomorrow will be 1m 27s shorter.
Waning Crescent, 3% of the Moon is Illuminated
Today
Waning Crescent
Oct 23
New
Oct 30
First Quarter
Nov 6
Full
Nov 14
Last Quarter

Today's Extremes

State Highs State Lows

Community

WunderPhotos

Upload Photos

1,763,843 photos uploaded!

Nearby

Air Quality

  Air Quality AQ Index Pollutant
Yesterday Good
PM2.5
Yesterday Good
OZONE
Current Good
PM2.5
Current Good
OZONE
Tuesday Good
OZONE
Tuesday Good
PM2.5
Wednesday Good
OZONE
Wednesday Good
PM2.5
Thursday Good
OZONE
Thursday Good
PM2.5

Snow Depth

Station Depth Elevation
No new snow has been reported.

Earthquake Activity

City Distance Mag. Time & Date
No recent earthquake activity has been reported nearby.
Minimum magnitude displayed is 2.5.

Coastal Water Temperatures

Place Temperature
Lake Worth, FL 82.0 °F
Virginia Key, FL 81.0 °F

Nearby Weather Stations